sensor_id;sensor_type;location;lat;lon;timestamp;temperature;humidity
10030;DHT22;5055;52.054;8.524;2023-04-10T00:00:28;2.70;97.00
10030;DHT22;5055;52.054;8.524;2023-04-10T00:02:57;2.70;97.00
10030;DHT22;5055;52.054;8.524;2023-04-10T00:05:27;2.60;97.00
10030;DHT22;5055;52.054;8.524;2023-04-10T00:07:55;2.60;97.00
10030;DHT22;5055;52.054;8.524;2023-04-10T00:10:23;2.60;97.00
10030;DHT22;5055;52.054;8.524;2023-04-10T00:12:54;2.50;97.00
10030;DHT22;5055;52.054;8.524;2023-04-10T00:15:22;2.50;97.00
10030;DHT22;5055;52.054;8.524;2023-04-10T00:17:50;2.50;97.00
10030;DHT22;5055;52.054;8.524;2023-04-10T00:20:21;2.50;97.00
10030;DHT22;5055;52.054;8.524;2023-04-10T00:22:52;2.50;97.00
10030;DHT22;5055;52.054;8.524;2023-04-10T00:25:20;2.50;97.00
10030;DHT22;5055;52.054;8.524;2023-04-10T00:27:49;2.40;97.00
10030;DHT22;5055;52.054;8.524;2023-04-10T00:30:18;2.40;97.00
10030;DHT22;5055;52.054;8.524;2023-04-10T00:32:46;2.40;97.00
10030;DHT22;5055;52.054;8.524;2023-04-10T00:35:14;2.40;97.00
10030;DHT22;5055;52.054;8.524;2023-04-10T00:37:42;2.40;97.00
10030;DHT22;5055;52.054;8.524;2023-04-10T00:40:11;2.30;97.00
10030;DHT22;5055;52.054;8.524;2023-04-10T00:42:39;2.30;97.00
10030;DHT22;5055;52.054;8.524;2023-04-10T00:45:08;2.30;97.00
10030;DHT22;5055;52.054;8.524;2023-04-10T00:47:38;2.20;97.00
10030;DHT22;5055;52.054;8.524;2023-04-10T00:50:07;2.20;97.00
10030;DHT22;5055;52.054;8.524;2023-04-10T00:52:35;2.20;97.00
10030;DHT22;5055;52.054;8.524;2023-04-10T00:55:04;2.10;97.00
10030;DHT22;5055;52.054;8.524;2023-04-10T00:57:33;2.10;97.00
10030;DHT22;5055;52.054;8.524;2023-04-10T01:00:01;2.10;97.00
10030;DHT22;5055;52.054;8.524;2023-04-10T01:02:30;2.10;97.00
10030;DHT22;5055;52.054;8.524;2023-04-10T01:05:00;2.10;97.00
10030;DHT22;5055;52.054;8.524;2023-04-10T01:07:37;2.00;97.00
10030;DHT22;5055;52.054;8.524;2023-04-10T01:10:14;2.00;97.00
10030;DHT22;5055;52.054;8.524;2023-04-10T01:12:52;2.00;97.00
10030;DHT22;5055;52.054;8.524;2023-04-10T01:15:25;2.00;97.00
10030;DHT22;5055;52.054;8.524;2023-04-10T01:17:56;2.00;97.00
10030;DHT22;5055;52.054;8.524;2023-04-10T01:20:29;2.00;97.00
10030;DHT22;5055;52.054;8.524;2023-04-10T01:25:56;2.00;97.00
10030;DHT22;5055;52.054;8.524;2023-04-10T01:28:50;1.90;97.00
10030;DHT22;5055;52.054;8.524;2023-04-10T01:31:24;1.90;97.00
10030;DHT22;5055;52.054;8.524;2023-04-10T01:33:57;1.90;97.00
10030;DHT22;5055;52.054;8.524;2023-04-10T01:36:29;2.00;97.00
10030;DHT22;5055;52.054;8.524;2023-04-10T01:38:59;2.00;97.00
10030;DHT22;5055;52.054;8.524;2023-04-10T01:41:28;2.00;97.00
10030;DHT22;5055;52.054;8.524;2023-04-10T01:43:59;2.10;97.00
10030;DHT22;5055;52.054;8.524;2023-04-10T01:46:30;2.10;97.00
10030;DHT22;5055;52.054;8.524;2023-04-10T01:49:01;2.10;97.00
10030;DHT22;5055;52.054;8.524;2023-04-10T01:51:30;2.10;97.00
10030;DHT22;5055;52.054;8.524;2023-04-10T01:54:00;2.00;97.00
10030;DHT22;5055;52.054;8.524;2023-04-10T01:56:32;2.00;97.00
10030;DHT22;5055;52.054;8.524;2023-04-10T01:59:02;2.00;97.00
10030;DHT22;5055;52.054;8.524;2023-04-10T02:01:31;2.00;97.00
10030;DHT22;5055;52.054;8.524;2023-04-10T02:04:00;2.00;97.00
10030;DHT22;5055;52.054;8.524;2023-04-10T02:06:36;2.00;97.00
10030;DHT22;5055;52.054;8.524;2023-04-10T02:09:13;2.00;97.00
10030;DHT22;5055;52.054;8.524;2023-04-10T02:11:48;2.00;97.00
10030;DHT22;5055;52.054;8.524;2023-04-10T02:14:21;1.90;97.00
10030;DHT22;5055;52.054;8.524;2023-04-10T02:16:52;1.90;97.00
10030;DHT22;5055;52.054;8.524;2023-04-10T02:19:22;1.90;97.00
10030;DHT22;5055;52.054;8.524;2023-04-10T02:21:52;1.90;97.00
10030;DHT22;5055;52.054;8.524;2023-04-10T02:24:20;1.90;97.00
10030;DHT22;5055;52.054;8.524;2023-04-10T02:26:50;1.90;97.00
10030;DHT22;5055;52.054;8.524;2023-04-10T02:29:19;1.90;97.00
10030;DHT22;5055;52.054;8.524;2023-04-10T02:31:48;1.90;97.00
10030;DHT22;5055;52.054;8.524;2023-04-10T02:34:16;1.90;97.00
10030;DHT22;5055;52.054;8.524;2023-04-10T02:36:44;1.90;97.00
10030;DHT22;5055;52.054;8.524;2023-04-10T02:39:12;1.90;97.00
10030;DHT22;5055;52.054;8.524;2023-04-10T02:41:41;1.90;97.00
10030;DHT22;5055;52.054;8.524;2023-04-10T02:44:09;1.80;97.00
10030;DHT22;5055;52.054;8.524;2023-04-10T02:46:38;1.80;97.00
10030;DHT22;5055;52.054;8.524;2023-04-10T02:49:07;1.90;97.00
10030;DHT22;5055;52.054;8.524;2023-04-10T02:51:36;1.90;97.00
10030;DHT22;5055;52.054;8.524;2023-04-10T02:54:04;1.90;97.00
10030;DHT22;5055;52.054;8.524;2023-04-10T02:56:32;1.90;97.00
10030;DHT22;5055;52.054;8.524;2023-04-10T02:59:01;1.90;97.00
10030;DHT22;5055;52.054;8.524;2023-04-10T03:01:29;1.90;97.00
10030;DHT22;5055;52.054;8.524;2023-04-10T03:03:59;1.90;97.00
10030;DHT22;5055;52.054;8.524;2023-04-10T03:06:28;1.90;97.00
10030;DHT22;5055;52.054;8.524;2023-04-10T03:08:57;1.90;97.00
10030;DHT22;5055;52.054;8.524;2023-04-10T03:11:25;1.90;97.00
10030;DHT22;5055;52.054;8.524;2023-04-10T03:13:53;1.90;97.00
10030;DHT22;5055;52.054;8.524;2023-04-10T03:16:21;1.90;97.00
10030;DHT22;5055;52.054;8.524;2023-04-10T03:18:49;1.80;97.00
10030;DHT22;5055;52.054;8.524;2023-04-10T03:21:19;1.90;97.00
10030;DHT22;5055;52.054;8.524;2023-04-10T03:23:47;1.90;97.00
10030;DHT22;5055;52.054;8.524;2023-04-10T03:26:15;2.00;97.00
10030;DHT22;5055;52.054;8.524;2023-04-10T03:28:43;2.00;97.00
10030;DHT22;5055;52.054;8.524;2023-04-10T03:31:11;1.90;97.00
10030;DHT22;5055;52.054;8.524;2023-04-10T03:33:39;1.90;97.00
10030;DHT22;5055;52.054;8.524;2023-04-10T03:36:08;1.90;97.00
10030;DHT22;5055;52.054;8.524;2023-04-10T03:38:38;1.90;97.00
10030;DHT22;5055;52.054;8.524;2023-04-10T03:41:06;1.90;97.00
10030;DHT22;5055;52.054;8.524;2023-04-10T03:43:34;1.80;97.00
10030;DHT22;5055;52.054;8.524;2023-04-10T03:46:02;1.80;97.00
10030;DHT22;5055;52.054;8.524;2023-04-10T03:48:30;1.80;97.00
10030;DHT22;5055;52.054;8.524;2023-04-10T03:50:59;1.80;97.00
10030;DHT22;5055;52.054;8.524;2023-04-10T03:53:27;1.80;97.00
10030;DHT22;5055;52.054;8.524;2023-04-10T03:55:56;1.80;97.00
10030;DHT22;5055;52.054;8.524;2023-04-10T03:58:24;1.80;97.00
10030;DHT22;5055;52.054;8.524;2023-04-10T04:00:52;1.80;97.00
10030;DHT22;5055;52.054;8.524;2023-04-10T04:03:20;1.90;97.00
10030;DHT22;5055;52.054;8.524;2023-04-10T04:05:49;1.90;97.00
10030;DHT22;5055;52.054;8.524;2023-04-10T04:08:17;1.90;97.00
10030;DHT22;5055;52.054;8.524;2023-04-10T04:10:46;2.00;97.00
10030;DHT22;5055;52.054;8.524;2023-04-10T04:13:15;1.90;97.00
10030;DHT22;5055;52.054;8.524;2023-04-10T04:15:43;2.00;97.00
10030;DHT22;5055;52.054;8.524;2023-04-10T04:18:13;2.00;97.00
10030;DHT22;5055;52.054;8.524;2023-04-10T04:20:41;2.00;97.00
10030;DHT22;5055;52.054;8.524;2023-04-10T04:23:09;2.00;97.00
10030;DHT22;5055;52.054;8.524;2023-04-10T04:25:37;2.00;97.00
10030;DHT22;5055;52.054;8.524;2023-04-10T04:28:05;2.00;97.00
10030;DHT22;5055;52.054;8.524;2023-04-10T04:30:35;2.00;97.00
10030;DHT22;5055;52.054;8.524;2023-04-10T04:33:03;2.00;97.00
10030;DHT22;5055;52.054;8.524;2023-04-10T04:35:31;2.10;97.00
10030;DHT22;5055;52.054;8.524;2023-04-10T04:37:59;2.10;97.00
10030;DHT22;5055;52.054;8.524;2023-04-10T04:40:28;2.10;97.00
10030;DHT22;5055;52.054;8.524;2023-04-10T04:42:56;2.10;97.00
10030;DHT22;5055;52.054;8.524;2023-04-10T04:45:24;2.20;97.00
10030;DHT22;5055;52.054;8.524;2023-04-10T04:47:53;2.20;97.00
10030;DHT22;5055;52.054;8.524;2023-04-10T04:50:21;2.20;97.00
10030;DHT22;5055;52.054;8.524;2023-04-10T04:52:49;2.20;97.00
10030;DHT22;5055;52.054;8.524;2023-04-10T04:55:17;2.20;97.00
10030;DHT22;5055;52.054;8.524;2023-04-10T04:57:45;2.30;97.00
10030;DHT22;5055;52.054;8.524;2023-04-10T05:00:14;2.40;97.00
10030;DHT22;5055;52.054;8.524;2023-04-10T05:02:42;2.40;97.00
10030;DHT22;5055;52.054;8.524;2023-04-10T05:05:11;2.40;97.00
10030;DHT22;5055;52.054;8.524;2023-04-10T05:07:39;2.50;97.00
10030;DHT22;5055;52.054;8.524;2023-04-10T05:10:08;2.60;97.00
10030;DHT22;5055;52.054;8.524;2023-04-10T05:12:36;2.70;97.00
10030;DHT22;5055;52.054;8.524;2023-04-10T05:15:05;2.80;97.00
10030;DHT22;5055;52.054;8.524;2023-04-10T05:17:33;3.00;97.00
10030;DHT22;5055;52.054;8.524;2023-04-10T05:20:01;3.10;97.00
10030;DHT22;5055;52.054;8.524;2023-04-10T05:22:31;3.20;97.00
10030;DHT22;5055;52.054;8.524;2023-04-10T05:24:59;3.30;97.00
10030;DHT22;5055;52.054;8.524;2023-04-10T05:27:27;3.50;97.00
10030;DHT22;5055;52.054;8.524;2023-04-10T05:29:55;3.60;97.00
10030;DHT22;5055;52.054;8.524;2023-04-10T05:32:23;3.80;97.00
10030;DHT22;5055;52.054;8.524;2023-04-10T05:34:52;4.00;97.00
10030;DHT22;5055;52.054;8.524;2023-04-10T05:37:20;4.10;97.00
10030;DHT22;5055;52.054;8.524;2023-04-10T05:39:50;4.20;97.00
10030;DHT22;5055;52.054;8.524;2023-04-10T05:42:18;4.30;97.00
10030;DHT22;5055;52.054;8.524;2023-04-10T05:44:50;4.40;97.00
10030;DHT22;5055;52.054;8.524;2023-04-10T05:47:18;4.60;97.00
10030;DHT22;5055;52.054;8.524;2023-04-10T05:49:46;4.80;97.00
10030;DHT22;5055;52.054;8.524;2023-04-10T05:52:14;5.00;97.00
10030;DHT22;5055;52.054;8.524;2023-04-10T05:54:42;5.30;97.00
10030;DHT22;5055;52.054;8.524;2023-04-10T05:57:11;5.60;97.00
10030;DHT22;5055;52.054;8.524;2023-04-10T05:59:39;5.90;97.00
10030;DHT22;5055;52.054;8.524;2023-04-10T06:02:07;6.20;97.00
10030;DHT22;5055;52.054;8.524;2023-04-10T06:04:36;6.40;97.00
10030;DHT22;5055;52.054;8.524;2023-04-10T06:07:04;6.60;97.00
10030;DHT22;5055;52.054;8.524;2023-04-10T06:09:32;6.90;97.00
10030;DHT22;5055;52.054;8.524;2023-04-10T06:12:00;7.30;97.00
10030;DHT22;5055;52.054;8.524;2023-04-10T06:14:30;7.60;97.00
10030;DHT22;5055;52.054;8.524;2023-04-10T06:16:57;8.00;97.00
10030;DHT22;5055;52.054;8.524;2023-04-10T06:19:26;8.20;97.00
10030;DHT22;5055;52.054;8.524;2023-04-10T06:21:54;8.30;97.00
10030;DHT22;5055;52.054;8.524;2023-04-10T06:24:22;8.40;97.00
10030;DHT22;5055;52.054;8.524;2023-04-10T06:26:50;8.40;97.00
10030;DHT22;5055;52.054;8.524;2023-04-10T06:29:18;8.40;97.00
10030;DHT22;5055;52.054;8.524;2023-04-10T06:31:47;8.40;97.00
10030;DHT22;5055;52.054;8.524;2023-04-10T06:34:15;8.50;97.00
10030;DHT22;5055;52.054;8.524;2023-04-10T06:36:43;8.50;97.00
10030;DHT22;5055;52.054;8.524;2023-04-10T06:39:11;8.50;97.00
10030;DHT22;5055;52.054;8.524;2023-04-10T06:41:39;8.60;97.00
10030;DHT22;5055;52.054;8.524;2023-04-10T06:44:07;8.80;97.00
10030;DHT22;5055;52.054;8.524;2023-04-10T06:46:36;9.30;97.00
10030;DHT22;5055;52.054;8.524;2023-04-10T06:49:05;9.70;97.00
10030;DHT22;5055;52.054;8.524;2023-04-10T06:51:33;10.20;97.00
10030;DHT22;5055;52.054;8.524;2023-04-10T06:54:01;10.60;97.00
10030;DHT22;5055;52.054;8.524;2023-04-10T06:56:30;10.90;97.00
10030;DHT22;5055;52.054;8.524;2023-04-10T06:58:58;11.20;97.00
10030;DHT22;5055;52.054;8.524;2023-04-10T07:01:26;11.70;97.00
10030;DHT22;5055;52.054;8.524;2023-04-10T07:03:55;12.10;97.00
10030;DHT22;5055;52.054;8.524;2023-04-10T07:06:24;12.40;97.00
10030;DHT22;5055;52.054;8.524;2023-04-10T07:08:53;12.80;97.00
10030;DHT22;5055;52.054;8.524;2023-04-10T07:11:21;13.30;97.00
10030;DHT22;5055;52.054;8.524;2023-04-10T07:13:50;13.50;97.00
10030;DHT22;5055;52.054;8.524;2023-04-10T07:16:19;13.60;97.00
10030;DHT22;5055;52.054;8.524;2023-04-10T07:18:47;13.70;97.00
10030;DHT22;5055;52.054;8.524;2023-04-10T07:21:16;13.90;97.00
10030;DHT22;5055;52.054;8.524;2023-04-10T07:23:45;14.20;97.00
10030;DHT22;5055;52.054;8.524;2023-04-10T07:26:13;14.20;97.00
10030;DHT22;5055;52.054;8.524;2023-04-10T07:28:42;14.20;97.00
10030;DHT22;5055;52.054;8.524;2023-04-10T07:31:10;14.20;97.00
10030;DHT22;5055;52.054;8.524;2023-04-10T07:33:39;14.10;97.00
10030;DHT22;5055;52.054;8.524;2023-04-10T07:36:08;14.30;97.00
10030;DHT22;5055;52.054;8.524;2023-04-10T07:38:36;14.50;97.00
10030;DHT22;5055;52.054;8.524;2023-04-10T07:41:06;14.60;97.00
10030;DHT22;5055;52.054;8.524;2023-04-10T07:43:35;14.80;97.00
10030;DHT22;5055;52.054;8.524;2023-04-10T07:46:04;14.80;97.00
10030;DHT22;5055;52.054;8.524;2023-04-10T07:48:32;15.10;97.00
10030;DHT22;5055;52.054;8.524;2023-04-10T07:51:01;15.20;97.00
10030;DHT22;5055;52.054;8.524;2023-04-10T07:53:29;15.20;97.00
10030;DHT22;5055;52.054;8.524;2023-04-10T07:55:57;15.10;97.00
10030;DHT22;5055;52.054;8.524;2023-04-10T07:58:27;15.00;97.00
10030;DHT22;5055;52.054;8.524;2023-04-10T08:00:55;15.00;97.00
10030;DHT22;5055;52.054;8.524;2023-04-10T08:03:25;15.10;97.00
10030;DHT22;5055;52.054;8.524;2023-04-10T08:05:53;15.40;97.00
10030;DHT22;5055;52.054;8.524;2023-04-10T08:08:22;15.20;97.00
10030;DHT22;5055;52.054;8.524;2023-04-10T08:10:50;15.20;97.00
10030;DHT22;5055;52.054;8.524;2023-04-10T08:13:18;15.20;97.00
10030;DHT22;5055;52.054;8.524;2023-04-10T08:15:47;15.50;97.00
10030;DHT22;5055;52.054;8.524;2023-04-10T08:18:15;15.70;97.00
10030;DHT22;5055;52.054;8.524;2023-04-10T08:20:43;15.70;97.00
10030;DHT22;5055;52.054;8.524;2023-04-10T08:23:11;15.80;97.00
10030;DHT22;5055;52.054;8.524;2023-04-10T08:25:46;15.60;97.00
10030;DHT22;5055;52.054;8.524;2023-04-10T08:28:14;15.70;97.00
10030;DHT22;5055;52.054;8.524;2023-04-10T08:30:42;15.80;97.00
10030;DHT22;5055;52.054;8.524;2023-04-10T08:33:12;15.80;97.00
10030;DHT22;5055;52.054;8.524;2023-04-10T08:35:40;15.80;97.00
10030;DHT22;5055;52.054;8.524;2023-04-10T08:38:09;15.90;97.00
10030;DHT22;5055;52.054;8.524;2023-04-10T08:40:40;16.40;97.00
10030;DHT22;5055;52.054;8.524;2023-04-10T08:43:10;16.30;97.00
10030;DHT22;5055;52.054;8.524;2023-04-10T08:45:39;16.20;97.00
10030;DHT22;5055;52.054;8.524;2023-04-10T08:48:09;16.10;97.00
10030;DHT22;5055;52.054;8.524;2023-04-10T08:50:41;16.30;97.00
10030;DHT22;5055;52.054;8.524;2023-04-10T08:53:12;16.50;97.00
10030;DHT22;5055;52.054;8.524;2023-04-10T08:55:41;16.70;97.00
10030;DHT22;5055;52.054;8.524;2023-04-10T08:58:11;16.60;97.00
10030;DHT22;5055;52.054;8.524;2023-04-10T09:00:40;16.40;97.00
10030;DHT22;5055;52.054;8.524;2023-04-10T09:03:09;16.30;97.00
10030;DHT22;5055;52.054;8.524;2023-04-10T09:05:41;16.10;97.00
10030;DHT22;5055;52.054;8.524;2023-04-10T09:08:10;16.00;97.00
10030;DHT22;5055;52.054;8.524;2023-04-10T09:10:39;15.70;97.00
10030;DHT22;5055;52.054;8.524;2023-04-10T09:13:07;15.60;97.00
10030;DHT22;5055;52.054;8.524;2023-04-10T09:15:57;15.80;97.00
10030;DHT22;5055;52.054;8.524;2023-04-10T09:18:40;16.40;97.00
10030;DHT22;5055;52.054;8.524;2023-04-10T09:21:11;16.30;97.00
10030;DHT22;5055;52.054;8.524;2023-04-10T09:23:40;16.50;97.00
10030;DHT22;5055;52.054;8.524;2023-04-10T09:26:25;16.70;97.00
10030;DHT22;5055;52.054;8.524;2023-04-10T09:28:58;16.70;97.00
10030;DHT22;5055;52.054;8.524;2023-04-10T09:31:29;16.70;97.00
10030;DHT22;5055;52.054;8.524;2023-04-10T09:34:08;16.80;97.00
10030;DHT22;5055;52.054;8.524;2023-04-10T09:36:38;16.70;97.00
10030;DHT22;5055;52.054;8.524;2023-04-10T09:39:08;17.10;97.00
10030;DHT22;5055;52.054;8.524;2023-04-10T09:41:57;17.40;97.00
10030;DHT22;5055;52.054;8.524;2023-04-10T09:44:29;17.50;97.00
10030;DHT22;5055;52.054;8.524;2023-04-10T09:46:59;17.20;97.00
10030;DHT22;5055;52.054;8.524;2023-04-10T09:49:44;17.30;97.00
10030;DHT22;5055;52.054;8.524;2023-04-10T09:52:19;17.40;97.00
10030;DHT22;5055;52.054;8.524;2023-04-10T09:54:47;17.40;97.00
10030;DHT22;5055;52.054;8.524;2023-04-10T09:57:16;17.70;97.00
10030;DHT22;5055;52.054;8.524;2023-04-10T09:59:48;17.90;97.00
10030;DHT22;5055;52.054;8.524;2023-04-10T10:02:17;18.00;97.00
10030;DHT22;5055;52.054;8.524;2023-04-10T10:04:47;18.20;97.00
10030;DHT22;5055;52.054;8.524;2023-04-10T10:07:18;18.00;97.00
10030;DHT22;5055;52.054;8.524;2023-04-10T10:09:49;17.90;97.00
10030;DHT22;5055;52.054;8.524;2023-04-10T10:12:21;17.80;97.00
10030;DHT22;5055;52.054;8.524;2023-04-10T10:14:56;17.90;97.00
10030;DHT22;5055;52.054;8.524;2023-04-10T10:17:31;18.10;97.00
10030;DHT22;5055;52.054;8.524;2023-04-10T10:20:07;18.00;97.00
10030;DHT22;5055;52.054;8.524;2023-04-10T10:22:37;18.00;97.00
10030;DHT22;5055;52.054;8.524;2023-04-10T10:25:07;17.90;97.00
10030;DHT22;5055;52.054;8.524;2023-04-10T10:27:36;17.80;97.00
10030;DHT22;5055;52.054;8.524;2023-04-10T10:30:07;17.80;97.00
10030;DHT22;5055;52.054;8.524;2023-04-10T10:32:55;17.80;97.00
10030;DHT22;5055;52.054;8.524;2023-04-10T10:35:25;17.80;97.00
10030;DHT22;5055;52.054;8.524;2023-04-10T10:37:57;18.00;97.00
10030;DHT22;5055;52.054;8.524;2023-04-10T10:40:30;18.00;97.00
10030;DHT22;5055;52.054;8.524;2023-04-10T10:43:05;18.40;97.00
10030;DHT22;5055;52.054;8.524;2023-04-10T10:45:39;18.60;97.00
10030;DHT22;5055;52.054;8.524;2023-04-10T10:48:08;18.50;97.00
10030;DHT22;5055;52.054;8.524;2023-04-10T10:50:53;18.50;97.00
10030;DHT22;5055;52.054;8.524;2023-04-10T10:53:41;18.20;97.00
10030;DHT22;5055;52.054;8.524;2023-04-10T10:56:34;18.20;97.00
10030;DHT22;5055;52.054;8.524;2023-04-10T10:59:02;18.40;97.00
10030;DHT22;5055;52.054;8.524;2023-04-10T11:01:31;18.80;97.00
10030;DHT22;5055;52.054;8.524;2023-04-10T11:03:59;18.60;97.00
10030;DHT22;5055;52.054;8.524;2023-04-10T11:06:47;18.60;97.00
10030;DHT22;5055;52.054;8.524;2023-04-10T11:09:48;18.80;97.00
10030;DHT22;5055;52.054;8.524;2023-04-10T11:12:18;18.80;97.00
10030;DHT22;5055;52.054;8.524;2023-04-10T11:14:56;18.90;97.00
10030;DHT22;5055;52.054;8.524;2023-04-10T11:17:50;18.90;97.00
10030;DHT22;5055;52.054;8.524;2023-04-10T11:20:20;19.00;97.00
10030;DHT22;5055;52.054;8.524;2023-04-10T11:23:09;18.90;97.00
10030;DHT22;5055;52.054;8.524;2023-04-10T11:25:57;18.80;97.00
10030;DHT22;5055;52.054;8.524;2023-04-10T11:28:35;18.70;97.00
10030;DHT22;5055;52.054;8.524;2023-04-10T11:31:16;18.80;97.00
10030;DHT22;5055;52.054;8.524;2023-04-10T11:33:46;18.80;97.00
10030;DHT22;5055;52.054;8.524;2023-04-10T11:36:15;18.70;97.00
10030;DHT22;5055;52.054;8.524;2023-04-10T11:38:57;18.70;97.00
10030;DHT22;5055;52.054;8.524;2023-04-10T11:41:28;18.30;97.00
10030;DHT22;5055;52.054;8.524;2023-04-10T11:43:58;18.60;97.00
10030;DHT22;5055;52.054;8.524;2023-04-10T11:46:26;18.70;97.00
10030;DHT22;5055;52.054;8.524;2023-04-10T11:48:57;18.70;97.00
10030;DHT22;5055;52.054;8.524;2023-04-10T11:51:26;18.60;97.00
10030;DHT22;5055;52.054;8.524;2023-04-10T11:54:07;18.70;97.00
10030;DHT22;5055;52.054;8.524;2023-04-10T11:56:37;18.80;97.00
10030;DHT22;5055;52.054;8.524;2023-04-10T11:59:06;19.00;97.00
10030;DHT22;5055;52.054;8.524;2023-04-10T12:01:37;18.90;97.00
10030;DHT22;5055;52.054;8.524;2023-04-10T12:04:15;18.50;97.00
10030;DHT22;5055;52.054;8.524;2023-04-10T12:06:44;18.70;97.00
10030;DHT22;5055;52.054;8.524;2023-04-10T12:09:13;18.70;97.00
10030;DHT22;5055;52.054;8.524;2023-04-10T12:11:49;18.50;97.00
10030;DHT22;5055;52.054;8.524;2023-04-10T12:14:19;18.50;97.00
10030;DHT22;5055;52.054;8.524;2023-04-10T12:16:48;18.70;97.00
10030;DHT22;5055;52.054;8.524;2023-04-10T12:19:17;18.60;97.00
10030;DHT22;5055;52.054;8.524;2023-04-10T12:21:46;18.70;97.00
10030;DHT22;5055;52.054;8.524;2023-04-10T12:24:41;18.70;97.00
10030;DHT22;5055;52.054;8.524;2023-04-10T12:27:16;18.70;97.00
10030;DHT22;5055;52.054;8.524;2023-04-10T12:29:44;18.80;97.00
10030;DHT22;5055;52.054;8.524;2023-04-10T12:32:13;18.50;97.00
10030;DHT22;5055;52.054;8.524;2023-04-10T12:34:42;18.70;97.00
10030;DHT22;5055;52.054;8.524;2023-04-10T12:37:16;18.90;97.00
10030;DHT22;5055;52.054;8.524;2023-04-10T12:39:44;19.00;97.00
10030;DHT22;5055;52.054;8.524;2023-04-10T12:42:13;19.00;97.00
10030;DHT22;5055;52.054;8.524;2023-04-10T12:44:54;19.20;97.00
10030;DHT22;5055;52.054;8.524;2023-04-10T12:47:24;19.30;97.00
10030;DHT22;5055;52.054;8.524;2023-04-10T12:50:13;19.40;97.00
10030;DHT22;5055;52.054;8.524;2023-04-10T12:52:44;19.20;97.00
10030;DHT22;5055;52.054;8.524;2023-04-10T12:55:14;19.40;97.00
10030;DHT22;5055;52.054;8.524;2023-04-10T12:57:45;19.40;97.00
10030;DHT22;5055;52.054;8.524;2023-04-10T13:00:16;19.50;97.00
10030;DHT22;5055;52.054;8.524;2023-04-10T13:02:46;19.40;97.00
10030;DHT22;5055;52.054;8.524;2023-04-10T13:05:15;19.20;97.00
10030;DHT22;5055;52.054;8.524;2023-04-10T13:07:43;19.10;97.00
10030;DHT22;5055;52.054;8.524;2023-04-10T13:10:11;19.10;97.00
10030;DHT22;5055;52.054;8.524;2023-04-10T13:12:39;19.20;97.00
10030;DHT22;5055;52.054;8.524;2023-04-10T13:15:09;19.30;97.00
10030;DHT22;5055;52.054;8.524;2023-04-10T13:17:38;19.50;97.00
10030;DHT22;5055;52.054;8.524;2023-04-10T13:20:08;19.70;97.00
10030;DHT22;5055;52.054;8.524;2023-04-10T13:22:37;19.90;97.00
10030;DHT22;5055;52.054;8.524;2023-04-10T13:25:05;19.70;97.00
10030;DHT22;5055;52.054;8.524;2023-04-10T13:27:33;19.80;97.00
10030;DHT22;5055;52.054;8.524;2023-04-10T13:30:02;19.80;97.00
10030;DHT22;5055;52.054;8.524;2023-04-10T13:32:30;19.90;97.00
10030;DHT22;5055;52.054;8.524;2023-04-10T13:35:00;20.20;97.00
10030;DHT22;5055;52.054;8.524;2023-04-10T13:37:28;20.30;97.00
10030;DHT22;5055;52.054;8.524;2023-04-10T13:39:56;20.30;97.00
10030;DHT22;5055;52.054;8.524;2023-04-10T13:42:24;20.50;97.00
10030;DHT22;5055;52.054;8.524;2023-04-10T13:44:53;20.30;97.00
10030;DHT22;5055;52.054;8.524;2023-04-10T13:47:21;20.30;97.00
10030;DHT22;5055;52.054;8.524;2023-04-10T13:49:50;20.20;97.00
10030;DHT22;5055;52.054;8.524;2023-04-10T13:52:20;20.20;97.00
10030;DHT22;5055;52.054;8.524;2023-04-10T13:54:49;20.20;97.00
10030;DHT22;5055;52.054;8.524;2023-04-10T13:57:17;20.10;97.00
10030;DHT22;5055;52.054;8.524;2023-04-10T13:59:45;20.00;97.00
10030;DHT22;5055;52.054;8.524;2023-04-10T14:02:13;19.70;97.00
10030;DHT22;5055;52.054;8.524;2023-04-10T14:04:42;19.70;97.00
10030;DHT22;5055;52.054;8.524;2023-04-10T14:07:11;19.50;97.00
10030;DHT22;5055;52.054;8.524;2023-04-10T14:09:41;19.40;97.00
10030;DHT22;5055;52.054;8.524;2023-04-10T14:12:09;19.40;97.00
10030;DHT22;5055;52.054;8.524;2023-04-10T14:14:37;19.50;97.00
10030;DHT22;5055;52.054;8.524;2023-04-10T14:17:05;19.60;97.00
10030;DHT22;5055;52.054;8.524;2023-04-10T14:19:34;19.60;97.00
10030;DHT22;5055;52.054;8.524;2023-04-10T14:22:02;19.50;97.00
10030;DHT22;5055;52.054;8.524;2023-04-10T14:24:30;19.40;97.00
10030;DHT22;5055;52.054;8.524;2023-04-10T14:27:00;19.80;97.00
10030;DHT22;5055;52.054;8.524;2023-04-10T14:29:28;20.30;97.00
10030;DHT22;5055;52.054;8.524;2023-04-10T14:32:06;20.30;97.00
10030;DHT22;5055;52.054;8.524;2023-04-10T14:34:34;20.50;97.00
10030;DHT22;5055;52.054;8.524;2023-04-10T14:37:03;20.60;97.00
10030;DHT22;5055;52.054;8.524;2023-04-10T14:39:40;20.60;97.00
10030;DHT22;5055;52.054;8.524;2023-04-10T14:42:12;20.70;97.00
10030;DHT22;5055;52.054;8.524;2023-04-10T14:44:41;20.30;97.00
10030;DHT22;5055;52.054;8.524;2023-04-10T14:47:12;20.30;97.00
10030;DHT22;5055;52.054;8.524;2023-04-10T14:49:40;20.10;97.00
10030;DHT22;5055;52.054;8.524;2023-04-10T14:52:08;20.40;97.00
10030;DHT22;5055;52.054;8.524;2023-04-10T14:54:36;20.40;97.00
10030;DHT22;5055;52.054;8.524;2023-04-10T14:57:07;20.30;97.00
10030;DHT22;5055;52.054;8.524;2023-04-10T14:59:44;20.30;97.00
10030;DHT22;5055;52.054;8.524;2023-04-10T15:02:13;20.00;97.00
10030;DHT22;5055;52.054;8.524;2023-04-10T15:04:42;20.10;97.00
10030;DHT22;5055;52.054;8.524;2023-04-10T15:07:11;19.80;97.00
10030;DHT22;5055;52.054;8.524;2023-04-10T15:09:39;19.60;97.00
10030;DHT22;5055;52.054;8.524;2023-04-10T15:12:09;19.30;97.00
10030;DHT22;5055;52.054;8.524;2023-04-10T15:14:41;19.40;97.00
10030;DHT22;5055;52.054;8.524;2023-04-10T15:17:10;19.30;97.00
10030;DHT22;5055;52.054;8.524;2023-04-10T15:19:39;19.00;97.00
10030;DHT22;5055;52.054;8.524;2023-04-10T15:22:07;19.00;97.00
10030;DHT22;5055;52.054;8.524;2023-04-10T15:24:36;19.00;97.00
10030;DHT22;5055;52.054;8.524;2023-04-10T15:27:18;19.10;97.00
10030;DHT22;5055;52.054;8.524;2023-04-10T15:29:46;18.80;97.00
10030;DHT22;5055;52.054;8.524;2023-04-10T15:32:16;18.60;97.00
10030;DHT22;5055;52.054;8.524;2023-04-10T15:34:44;18.60;97.00
10030;DHT22;5055;52.054;8.524;2023-04-10T15:37:12;18.50;97.00
10030;DHT22;5055;52.054;8.524;2023-04-10T15:39:40;18.40;97.00
10030;DHT22;5055;52.054;8.524;2023-04-10T15:42:08;18.20;97.00
10030;DHT22;5055;52.054;8.524;2023-04-10T15:44:36;18.20;97.00
10030;DHT22;5055;52.054;8.524;2023-04-10T15:47:04;18.00;97.00
10030;DHT22;5055;52.054;8.524;2023-04-10T15:49:34;18.00;97.00
10030;DHT22;5055;52.054;8.524;2023-04-10T15:52:05;18.00;97.00
10030;DHT22;5055;52.054;8.524;2023-04-10T15:54:33;18.00;97.00
10030;DHT22;5055;52.054;8.524;2023-04-10T15:57:02;18.10;97.00
10030;DHT22;5055;52.054;8.524;2023-04-10T15:59:31;18.00;97.00
10030;DHT22;5055;52.054;8.524;2023-04-10T16:01:59;18.00;97.00
10030;DHT22;5055;52.054;8.524;2023-04-10T16:04:28;18.00;97.00
10030;DHT22;5055;52.054;8.524;2023-04-10T16:06:58;17.90;97.00
10030;DHT22;5055;52.054;8.524;2023-04-10T16:09:26;18.00;97.00
10030;DHT22;5055;52.054;8.524;2023-04-10T16:11:54;17.90;97.00
10030;DHT22;5055;52.054;8.524;2023-04-10T16:14:23;17.90;97.00